Time;durP1;ratioP1;P1;durP2;ratioP2;P2;SDS_P1;SDS_P2;PMS_P1;PMS_P2;Temp;Humidity;BMP_temperature;BMP_pressure;BME280_temperature;BME280_humidity;BME280_pressure;Samples;Min_cycle;Max_cycle;Signal;HPM_P1;HPM_P2
2022/07/23 00:00:04;;;;;;;5.60;2.50;;;;;;;;;;5030383;28;97645;-74
2022/07/23 00:02:30;;;;;;;4.47;2.72;;;;;;;;;;5034271;28;95415;-74
2022/07/23 00:04:57;;;;;;;4.93;2.70;;;;;;;;;;5032325;28;97346;-74
2022/07/23 00:07:23;;;;;;;7.10;2.90;;;;;;;;;;5031812;28;95343;-73
2022/07/23 00:09:50;;;;;;;8.88;2.92;;;;;;;;;;5031349;28;97125;-73
2022/07/23 00:12:16;;;;;;;7.05;2.80;;;;;;;;;;5016422;28;97471;-74
2022/07/23 00:14:42;;;;;;;4.78;3.20;;;;;;;;;;5031601;28;95347;-73
2022/07/23 00:17:09;;;;;;;6.55;3.00;;;;;;;;;;5028453;28;96887;-74
2022/07/23 00:19:35;;;;;;;5.47;3.03;;;;;;;;;;5030415;28;97347;-74
2022/07/23 00:22:01;;;;;;;4.97;3.08;;;;;;;;;;5037066;27;95389;-73
2022/07/23 00:24:28;;;;;;;7.43;3.45;;;;;;;;;;5031638;28;97352;-74
2022/07/23 00:26:55;;;;;;;6.40;2.72;;;;;;;;;;5031815;28;95380;-73
2022/07/23 00:29:21;;;;;;;8.35;2.58;;;;;;;;;;5030903;28;95573;-74
2022/07/23 00:31:47;;;;;;;6.57;2.90;;;;;;;;;;5026230;28;97369;-74
2022/07/23 00:34:14;;;;;;;7.57;3.40;;;;;;;;;;5031389;28;95370;-73
2022/07/23 00:36:41;;;;;;;11.27;3.10;;;;;;;;;;5032005;28;97276;-74
2022/07/23 00:39:07;;;;;;;5.50;2.97;;;;;;;;;;5027762;28;96194;-74
2022/07/23 00:41:34;;;;;;;6.68;2.80;;;;;;;;;;5029951;28;95367;-74
2022/07/23 00:44:19;;;;;;;5.32;3.03;;;;;;;;;;5053184;27;96890;-75
2022/07/23 00:46:46;;;;;;;8.50;3.42;;;;;;;;;;5032849;27;97098;-75
2022/07/23 00:49:13;;;;;;;8.52;3.35;;;;;;;;;;5029573;27;97119;-74
2022/07/23 00:51:39;;;;;;;7.63;3.45;;;;;;;;;;5032705;28;97938;-75
2022/07/23 00:54:05;;;;;;;6.43;3.25;;;;;;;;;;5031209;27;95538;-75
2022/07/23 00:56:32;;;;;;;7.00;3.50;;;;;;;;;;5034083;28;96744;-74
2022/07/23 00:59:00;;;;;;;5.53;3.13;;;;;;;;;;5034030;28;97335;-73
2022/07/23 01:01:27;;;;;;;5.10;3.08;;;;;;;;;;5034357;28;95746;-74
2022/07/23 01:03:53;;;;;;;8.02;3.15;;;;;;;;;;5032360;27;96660;-74
2022/07/23 01:06:20;;;;;;;6.47;3.65;;;;;;;;;;5036829;28;97308;-73
2022/07/23 01:08:46;;;;;;;6.15;3.35;;;;;;;;;;5034617;28;96906;-74
2022/07/23 01:11:13;;;;;;;6.88;3.85;;;;;;;;;;5034341;28;97274;-73
2022/07/23 01:13:43;;;;;;;4.60;3.25;;;;;;;;;;5032841;27;95372;-74
2022/07/23 01:16:09;;;;;;;5.60;3.30;;;;;;;;;;5030192;28;95862;-74
2022/07/23 01:18:37;;;;;;;7.63;3.10;;;;;;;;;;5033926;28;98156;-74
2022/07/23 01:21:03;;;;;;;4.88;3.10;;;;;;;;;;5034977;28;95339;-73
2022/07/23 01:23:29;;;;;;;7.30;3.28;;;;;;;;;;5044418;27;96705;-74
2022/07/23 01:25:56;;;;;;;9.38;3.17;;;;;;;;;;5039040;27;97692;-74
2022/07/23 01:28:22;;;;;;;6.55;3.30;;;;;;;;;;5037577;28;95414;-74
2022/07/23 01:30:48;;;;;;;8.07;3.25;;;;;;;;;;5028811;28;97446;-74
2022/07/23 01:33:15;;;;;;;7.80;3.20;;;;;;;;;;5033851;28;95665;-73
2022/07/23 01:35:41;;;;;;;4.93;3.05;;;;;;;;;;5034759;28;96852;-74
2022/07/23 01:38:08;;;;;;;4.68;3.08;;;;;;;;;;5045143;27;97710;-73
2022/07/23 01:40:34;;;;;;;4.78;3.08;;;;;;;;;;5048597;27;95336;-74
2022/07/23 01:43:00;;;;;;;5.88;3.35;;;;;;;;;;5032377;28;95756;-74
2022/07/23 01:45:27;;;;;;;5.43;3.65;;;;;;;;;;5033395;28;97449;-74
2022/07/23 01:47:53;;;;;;;5.63;3.05;;;;;;;;;;5028369;28;95533;-74
2022/07/23 01:50:19;;;;;;;11.73;3.15;;;;;;;;;;5037308;28;96782;-75
2022/07/23 01:52:46;;;;;;;8.48;3.25;;;;;;;;;;5029645;27;95546;-74
2022/07/23 01:55:12;;;;;;;6.05;3.38;;;;;;;;;;5014590;28;96759;-75
2022/07/23 01:57:44;;;;;;;18.70;4.32;;;;;;;;;;5031386;28;97734;-74
2022/07/23 02:00:11;;;;;;;5.88;3.35;;;;;;;;;;5040629;27;97032;-74
2022/07/23 02:02:37;;;;;;;7.82;4.10;;;;;;;;;;5027541;28;96972;-75
2022/07/23 02:05:04;;;;;;;7.32;3.80;;;;;;;;;;5033323;28;97419;-74
2022/07/23 02:07:31;;;;;;;8.13;3.63;;;;;;;;;;5033708;27;95391;-74
2022/07/23 02:10:00;;;;;;;6.13;3.47;;;;;;;;;;5038874;27;97043;-74
2022/07/23 02:12:26;;;;;;;5.10;3.20;;;;;;;;;;5035643;28;97422;-74
2022/07/23 02:14:53;;;;;;;5.80;3.47;;;;;;;;;;5032378;28;96928;-74
2022/07/23 02:17:19;;;;;;;8.00;3.30;;;;;;;;;;5015788;27;97280;-74
2022/07/23 02:19:46;;;;;;;12.70;3.53;;;;;;;;;;5041652;27;95271;-75
2022/07/23 02:22:12;;;;;;;10.60;3.80;;;;;;;;;;5015641;28;97333;-74
2022/07/23 02:24:38;;;;;;;11.43;4.00;;;;;;;;;;5035252;27;97345;-74
2022/07/23 02:27:04;;;;;;;6.38;3.80;;;;;;;;;;5032930;27;95697;-74
2022/07/23 02:29:31;;;;;;;7.32;3.75;;;;;;;;;;5029886;27;96973;-74
2022/07/23 02:31:57;;;;;;;7.93;3.28;;;;;;;;;;5035881;27;97719;-74
2022/07/23 02:34:24;;;;;;;5.45;3.13;;;;;;;;;;5032479;27;97004;-74
2022/07/23 02:36:50;;;;;;;6.63;3.55;;;;;;;;;;5030003;27;97305;-73
2022/07/23 02:39:17;;;;;;;6.35;3.25;;;;;;;;;;5033661;28;95623;-73
2022/07/23 02:41:43;;;;;;;5.78;3.70;;;;;;;;;;5036961;27;96867;-73
2022/07/23 02:44:09;;;;;;;6.50;3.33;;;;;;;;;;5034703;27;97394;-73
2022/07/23 02:46:36;;;;;;;6.97;3.42;;;;;;;;;;5049308;27;95401;-74
2022/07/23 02:49:04;;;;;;;9.75;3.95;;;;;;;;;;5053654;27;96863;-74
2022/07/23 02:51:31;;;;;;;7.60;3.60;;;;;;;;;;5036688;27;97866;-74
2022/07/23 02:53:58;;;;;;;6.13;3.45;;;;;;;;;;5034638;28;95384;-73
2022/07/23 02:56:24;;;;;;;6.10;3.30;;;;;;;;;;5038228;27;97500;-74
2022/07/23 02:58:51;;;;;;;6.75;3.15;;;;;;;;;;5032123;28;95420;-73
2022/07/23 03:01:17;;;;;;;6.65;3.50;;;;;;;;;;5030579;28;97353;-73
2022/07/23 03:03:46;;;;;;;10.38;3.17;;;;;;;;;;5030176;28;97266;-73
2022/07/23 03:06:13;;;;;;;11.45;3.63;;;;;;;;;;5041741;27;95353;-73
2022/07/23 03:08:39;;;;;;;8.48;3.70;;;;;;;;;;5053044;27;96604;-73
2022/07/23 03:11:10;;;;;;;8.43;4.20;;;;;;;;;;5052479;27;97411;-73
2022/07/23 03:13:37;;;;;;;6.53;3.88;;;;;;;;;;5032426;27;97189;-73
2022/07/23 03:16:04;;;;;;;5.25;3.70;;;;;;;;;;5042095;27;96910;-73
2022/07/23 03:18:31;;;;;;;6.18;3.95;;;;;;;;;;5052992;27;95080;-73
2022/07/23 03:21:05;;;;;;;10.35;4.20;;;;;;;;;;5053284;27;97479;-74
2022/07/23 03:23:31;;;;;;;7.07;4.07;;;;;;;;;;5032499;27;97284;-73
2022/07/23 03:25:58;;;;;;;6.40;4.00;;;;;;;;;;5039546;27;95321;-74
2022/07/23 03:28:24;;;;;;;6.55;3.88;;;;;;;;;;5052774;27;95746;-74
2022/07/23 03:30:50;;;;;;;12.88;4.07;;;;;;;;;;5052360;27;97339;-73
2022/07/23 03:33:17;;;;;;;5.18;3.13;;;;;;;;;;5020206;28;95367;-75
2022/07/23 03:35:44;;;;;;;5.55;3.33;;;;;;;;;;5030345;27;96766;-75
2022/07/23 03:38:13;;;;;;;13.45;3.45;;;;;;;;;;5047215;27;97655;-75
2022/07/23 03:40:39;;;;;;;5.80;3.67;;;;;;;;;;5047050;27;96727;-75
2022/07/23 03:43:05;;;;;;;6.18;3.05;;;;;;;;;;5028299;28;97297;-74
2022/07/23 03:45:32;;;;;;;6.07;3.13;;;;;;;;;;5030538;27;96569;-75
2022/07/23 03:47:59;;;;;;;8.27;3.30;;;;;;;;;;5052891;27;96951;-74
2022/07/23 03:50:25;;;;;;;4.85;3.05;;;;;;;;;;5036104;27;97898;-74
2022/07/23 03:52:51;;;;;;;4.28;2.67;;;;;;;;;;5030215;28;95488;-74
2022/07/23 03:55:18;;;;;;;5.47;3.60;;;;;;;;;;5016523;28;96830;-74
2022/07/23 03:57:44;;;;;;;6.47;3.50;;;;;;;;;;5030574;27;97419;-74
2022/07/23 04:00:11;;;;;;;7.82;4.00;;;;;;;;;;5034731;28;95143;-73
2022/07/23 04:02:38;;;;;;;6.03;3.53;;;;;;;;;;5028674;28;97472;-74
2022/07/23 04:05:04;;;;;;;7.97;3.78;;;;;;;;;;5008493;28;95600;-74
2022/07/23 19:24:33;;;;;;;8.98;4.95;;;;;;;;;;5027726;28;95484;-74
2022/07/23 19:26:59;;;;;;;9.63;5.38;;;;;;;;;;5028104;28;97491;-75
2022/07/23 19:29:34;;;;;;;8.57;5.10;;;;;;;;;;5008979;28;95681;-76
2022/07/23 19:32:02;;;;;;;8.38;5.22;;;;;;;;;;4989087;28;96956;-77
2022/07/23 19:34:29;;;;;;;10.45;4.18;;;;;;;;;;5003242;28;97386;-76
2022/07/23 19:36:55;;;;;;;7.40;3.90;;;;;;;;;;5007801;28;95460;-76
2022/07/23 19:39:23;;;;;;;7.30;3.60;;;;;;;;;;5005693;28;96689;-77
2022/07/23 19:41:50;;;;;;;8.80;3.75;;;;;;;;;;5005516;28;97393;-76
2022/07/23 19:44:16;;;;;;;10.98;3.90;;;;;;;;;;5009929;28;95336;-75
2022/07/23 19:46:43;;;;;;;11.73;4.47;;;;;;;;;;5007203;28;97819;-76
2022/07/23 19:49:09;;;;;;;10.07;4.88;;;;;;;;;;5006106;28;95423;-77
2022/07/23 19:51:36;;;;;;;14.10;4.80;;;;;;;;;;5008175;28;95660;-78
2022/07/23 19:54:02;;;;;;;13.00;5.10;;;;;;;;;;5006448;28;97481;-78
2022/07/23 19:56:28;;;;;;;11.38;5.13;;;;;;;;;;5005596;28;95410;-77
2022/07/23 19:58:56;;;;;;;9.15;4.90;;;;;;;;;;5008149;28;97065;-77
2022/07/23 20:01:23;;;;;;;13.23;5.30;;;;;;;;;;5005013;28;97306;-77
2022/07/23 20:03:50;;;;;;;9.85;5.32;;;;;;;;;;5006169;28;96507;-76
2022/07/23 20:06:16;;;;;;;10.23;4.80;;;;;;;;;;5009570;28;96318;-76
2022/07/23 20:08:42;;;;;;;13.05;5.20;;;;;;;;;;5004073;28;96008;-75
2022/07/23 20:11:09;;;;;;;10.38;5.13;;;;;;;;;;4993965;28;96815;-77
2022/07/23 20:13:35;;;;;;;9.60;5.25;;;;;;;;;;5005632;28;97421;-76
2022/07/23 20:16:01;;;;;;;8.52;5.82;;;;;;;;;;5015736;28;95346;-77
2022/07/23 20:18:29;;;;;;;8.75;5.30;;;;;;;;;;5028073;28;96694;-76
2022/07/23 20:20:56;;;;;;;9.45;5.15;;;;;;;;;;5003950;28;96837;-75
2022/07/23 20:23:23;;;;;;;13.68;5.05;;;;;;;;;;5006637;28;95403;-77
2022/07/23 20:25:49;;;;;;;11.40;5.40;;;;;;;;;;5007069;28;96831;-75
2022/07/23 20:28:15;;;;;;;8.98;5.25;;;;;;;;;;5009241;28;97544;-75
2022/07/23 20:30:45;;;;;;;9.60;5.70;;;;;;;;;;5006731;28;97166;-75
2022/07/23 20:33:15;;;;;;;12.07;5.55;;;;;;;;;;5018273;28;96434;-75
2022/07/23 20:35:41;;;;;;;10.25;6.10;;;;;;;;;;4995997;28;95278;-75
2022/07/23 20:38:08;;;;;;;19.48;5.97;;;;;;;;;;4993947;28;96711;-74
2022/07/23 20:40:34;;;;;;;14.52;6.38;;;;;;;;;;4993217;28;97412;-74
2022/07/23 20:43:01;;;;;;;12.40;6.43;;;;;;;;;;4994414;28;95475;-75
2022/07/23 20:45:27;;;;;;;9.43;6.47;;;;;;;;;;4990279;28;96720;-74
2022/07/23 20:47:54;;;;;;;18.73;5.95;;;;;;;;;;4993301;28;97378;-73
2022/07/23 20:50:20;;;;;;;13.90;6.75;;;;;;;;;;4998252;28;96891;-76
2022/07/23 20:52:46;;;;;;;13.60;6.63;;;;;;;;;;4989905;28;97476;-74
2022/07/23 20:55:13;;;;;;;10.65;5.63;;;;;;;;;;4993331;28;95403;-73
2022/07/23 20:57:40;;;;;;;10.32;6.20;;;;;;;;;;4991644;28;96559;-74
2022/07/23 21:00:08;;;;;;;9.05;5.95;;;;;;;;;;4994485;28;97489;-74
2022/07/23 21:02:34;;;;;;;16.75;6.03;;;;;;;;;;4994128;28;95165;-74
2022/07/23 21:05:01;;;;;;;13.45;6.10;;;;;;;;;;5008727;28;95973;-74
2022/07/23 21:07:27;;;;;;;9.57;6.00;;;;;;;;;;5013369;28;97967;-74
2022/07/23 21:09:54;;;;;;;11.02;6.30;;;;;;;;;;5005489;28;95702;-74
2022/07/23 21:12:22;;;;;;;10.88;5.93;;;;;;;;;;4996074;28;97180;-75
2022/07/23 21:14:48;;;;;;;13.48;6.30;;;;;;;;;;4991112;28;96058;-75
2022/07/23 21:17:15;;;;;;;15.13;5.70;;;;;;;;;;4994307;28;96698;-74
2022/07/23 21:19:41;;;;;;;15.85;6.43;;;;;;;;;;4994674;28;97339;-73
2022/07/23 21:22:08;;;;;;;10.73;6.00;;;;;;;;;;5000928;28;95274;-74
2022/07/23 21:24:35;;;;;;;8.88;6.20;;;;;;;;;;5009406;28;96850;-74
2022/07/23 21:27:02;;;;;;;13.27;5.57;;;;;;;;;;5006497;28;97551;-74
2022/07/23 21:29:33;;;;;;;;;;;;;;;;;;4995482;28;96469;-74
2022/07/23 21:32:00;;;;;;;10.77;5.97;;;;;;;;;;4999942;28;127036;-74
2022/07/23 21:34:26;;;;;;;12.45;6.25;;;;;;;;;;5006013;28;95268;-73
2022/07/23 21:36:52;;;;;;;10.50;5.80;;;;;;;;;;5003719;28;97104;-75
2022/07/23 21:39:19;;;;;;;7.30;5.53;;;;;;;;;;5001914;28;97295;-73
2022/07/23 21:41:45;;;;;;;9.35;5.68;;;;;;;;;;5012714;28;95370;-75
2022/07/23 21:44:12;;;;;;;11.23;6.43;;;;;;;;;;4994074;28;96748;-74
2022/07/23 21:46:39;;;;;;;13.23;6.00;;;;;;;;;;4995413;28;97308;-76
2022/07/23 21:49:05;;;;;;;10.13;6.38;;;;;;;;;;5003711;28;96732;-74
2022/07/23 21:51:32;;;;;;;10.88;6.50;;;;;;;;;;5004813;28;96831;-76
2022/07/23 21:53:58;;;;;;;10.90;6.45;;;;;;;;;;5001656;28;96166;-73
2022/07/23 21:56:25;;;;;;;9.68;6.72;;;;;;;;;;5009809;28;96671;-74
2022/07/23 21:58:52;;;;;;;11.85;7.03;;;;;;;;;;4994424;28;97333;-75
2022/07/23 22:01:18;;;;;;;12.68;7.43;;;;;;;;;;4991217;28;97369;-74
2022/07/23 22:03:45;;;;;;;16.85;6.97;;;;;;;;;;4993596;28;96754;-74
2022/07/23 22:06:11;;;;;;;10.52;7.50;;;;;;;;;;4993383;28;96208;-73
2022/07/23 22:08:38;;;;;;;45.58;27.67;;;;;;;;;;4991059;28;95435;-73
2022/07/23 22:11:04;;;;;;;40.55;26.98;;;;;;;;;;4993101;28;96851;-74
2022/07/23 22:13:30;;;;;;;35.78;23.02;;;;;;;;;;4992622;28;97388;-73
2022/07/23 22:15:57;;;;;;;22.77;16.40;;;;;;;;;;4993809;28;95549;-74
2022/07/23 22:18:23;;;;;;;32.28;15.20;;;;;;;;;;4990402;28;97007;-74
2022/07/23 22:20:51;;;;;;;14.98;9.57;;;;;;;;;;4992099;28;96106;-74
2022/07/23 22:23:17;;;;;;;22.25;8.60;;;;;;;;;;4991121;28;95814;-74
2022/07/23 22:25:43;;;;;;;23.88;7.95;;;;;;;;;;4993405;28;96599;-74
2022/07/23 22:28:10;;;;;;;8.88;6.70;;;;;;;;;;4992463;28;95325;-75
2022/07/23 22:30:36;;;;;;;16.70;7.53;;;;;;;;;;4991878;28;95383;-74
2022/07/23 22:33:03;;;;;;;14.20;7.50;;;;;;;;;;4993154;28;96452;-73
2022/07/23 22:35:30;;;;;;;19.40;7.75;;;;;;;;;;4992306;28;95460;-74
2022/07/23 22:37:56;;;;;;;12.13;7.07;;;;;;;;;;4995986;28;96742;-74
2022/07/23 22:40:22;;;;;;;10.70;6.60;;;;;;;;;;5012052;28;95270;-75
2022/07/23 22:42:49;;;;;;;16.63;6.90;;;;;;;;;;4992060;28;96754;-75
2022/07/23 22:45:15;;;;;;;12.35;7.50;;;;;;;;;;4992582;28;97683;-74
2022/07/23 22:47:42;;;;;;;35.40;7.60;;;;;;;;;;4993181;28;95380;-76
2022/07/23 22:50:10;;;;;;;12.30;7.60;;;;;;;;;;4993248;28;97126;-74
2022/07/23 22:52:37;;;;;;;14.35;8.18;;;;;;;;;;4991009;28;97798;-76
2022/07/23 22:55:04;;;;;;;33.13;8.82;;;;;;;;;;4993186;28;95407;-74
2022/07/23 22:57:31;;;;;;;14.77;8.20;;;;;;;;;;4988917;28;96754;-73
2022/07/23 22:59:57;;;;;;;14.45;9.45;;;;;;;;;;4996149;28;96338;-73
2022/07/23 23:02:23;;;;;;;15.30;8.38;;;;;;;;;;4991850;28;96847;-74
2022/07/23 23:04:50;;;;;;;11.68;8.20;;;;;;;;;;4992401;28;97261;-74
2022/07/23 23:07:16;;;;;;;11.55;7.90;;;;;;;;;;5004794;28;97413;-74
2022/07/23 23:09:42;;;;;;;10.85;7.47;;;;;;;;;;4993211;28;96792;-74
2022/07/23 23:12:09;;;;;;;19.15;8.27;;;;;;;;;;4992486;28;97627;-74
2022/07/23 23:14:35;;;;;;;12.20;8.32;;;;;;;;;;4992569;28;95428;-74
2022/07/23 23:17:02;;;;;;;14.38;8.15;;;;;;;;;;4992774;28;96790;-73
2022/07/23 23:19:28;;;;;;;15.23;8.73;;;;;;;;;;4987524;28;97325;-74
2022/07/23 23:21:54;;;;;;;14.73;9.40;;;;;;;;;;4995217;28;95535;-74
2022/07/23 23:24:20;;;;;;;24.55;9.75;;;;;;;;;;4972356;28;97717;-74
2022/07/23 23:26:47;;;;;;;12.75;8.02;;;;;;;;;;4972567;28;95480;-74
2022/07/23 23:29:13;;;;;;;17.50;7.40;;;;;;;;;;4972322;28;96894;-75
2022/07/23 23:31:39;;;;;;;9.05;7.10;;;;;;;;;;4972232;28;97406;-74
2022/07/23 23:34:06;;;;;;;12.20;7.32;;;;;;;;;;4991417;28;95476;-74
2022/07/23 23:36:32;;;;;;;11.02;6.78;;;;;;;;;;4988645;28;96950;-75
2022/07/23 23:38:59;;;;;;;11.90;7.38;;;;;;;;;;4992123;28;97369;-75
2022/07/23 23:41:25;;;;;;;11.60;6.70;;;;;;;;;;4993612;28;95369;-74
2022/07/23 23:43:52;;;;;;;13.25;6.70;;;;;;;;;;4991875;28;97409;-75
2022/07/23 23:46:19;;;;;;;10.48;6.90;;;;;;;;;;4991769;28;95348;-75
2022/07/23 23:48:45;;;;;;;9.38;6.88;;;;;;;;;;4988268;28;97000;-74
2022/07/23 23:51:12;;;;;;;13.35;7.35;;;;;;;;;;4992123;28;97428;-74
2022/07/23 23:53:38;;;;;;;10.88;6.88;;;;;;;;;;4991484;28;95508;-74
2022/07/23 23:56:05;;;;;;;10.23;6.95;;;;;;;;;;4992342;28;96780;-75
2022/07/23 23:58:31;;;;;;;9.40;6.75;;;;;;;;;;4988349;28;97350;-77
